sensor_id;sensor_type;location;lat;lon;timestamp;pressure;altitude;pressure_sealevel;temperature;humidity
51081;BME280;37130;55.670;37.596;2023-12-28T00:00:51;98578.38;;;-0.90;79.08
51081;BME280;37130;55.670;37.596;2023-12-28T00:03:19;98583.50;;;-0.85;79.00
51081;BME280;37130;55.670;37.596;2023-12-28T00:05:47;98586.91;;;-0.82;78.83
51081;BME280;37130;55.670;37.596;2023-12-28T00:08:14;98581.69;;;-0.80;78.72
51081;BME280;37130;55.670;37.596;2023-12-28T00:10:42;98588.59;;;-0.79;79.17
51081;BME280;37130;55.670;37.596;2023-12-28T00:13:10;98586.06;;;-0.84;78.50
51081;BME280;37130;55.670;37.596;2023-12-28T00:15:37;98598.91;;;-0.76;78.86
51081;BME280;37130;55.670;37.596;2023-12-28T00:18:05;98586.81;;;-0.76;78.76
51081;BME280;37130;55.670;37.596;2023-12-28T00:20:33;98595.47;;;-0.77;78.69
51081;BME280;37130;55.670;37.596;2023-12-28T00:23:01;98591.16;;;-0.78;78.55
51081;BME280;37130;55.670;37.596;2023-12-28T00:25:32;98604.94;;;-0.74;78.40
51081;BME280;37130;55.670;37.596;2023-12-28T00:28:00;98611.88;;;-0.73;78.67
51081;BME280;37130;55.670;37.596;2023-12-28T00:30:28;98604.09;;;-0.73;78.52
51081;BME280;37130;55.670;37.596;2023-12-28T00:32:56;98605.78;;;-0.71;78.37
51081;BME280;37130;55.670;37.596;2023-12-28T00:35:24;98538.09;;;-1.13;78.53
51081;BME280;37130;55.670;37.596;2023-12-28T00:37:51;98609.16;;;-0.67;78.57
51081;BME280;37130;55.670;37.596;2023-12-28T00:40:19;98577.34;;;-0.81;78.34
51081;BME280;37130;55.670;37.596;2023-12-28T00:42:49;98596.94;;;-0.62;78.51
51081;BME280;37130;55.670;37.596;2023-12-28T00:45:16;98597.00;;;-0.65;78.40
51081;BME280;37130;55.670;37.596;2023-12-28T00:47:44;98581.53;;;-0.73;78.17
51081;BME280;37130;55.670;37.596;2023-12-28T00:50:12;98602.19;;;-0.65;78.09
51081;BME280;37130;55.670;37.596;2023-12-28T00:52:42;98611.75;;;-0.65;78.01
51081;BME280;37130;55.670;37.596;2023-12-28T00:55:10;98606.50;;;-0.64;78.50
51081;BME280;37130;55.670;37.596;2023-12-28T00:57:38;98563.75;;;-0.96;78.08
51081;BME280;37130;55.670;37.596;2023-12-28T01:00:07;98606.69;;;-0.75;78.27
51081;BME280;37130;55.670;37.596;2023-12-28T01:02:35;98614.38;;;-0.69;78.38
51081;BME280;37130;55.670;37.596;2023-12-28T01:05:03;98621.31;;;-0.69;78.32
51081;BME280;37130;55.670;37.596;2023-12-28T01:07:31;98619.56;;;-0.69;78.23
51081;BME280;37130;55.670;37.596;2023-12-28T01:09:59;98620.47;;;-0.68;78.57
51081;BME280;37130;55.670;37.596;2023-12-28T01:12:26;98628.19;;;-0.65;78.44
51081;BME280;37130;55.670;37.596;2023-12-28T01:14:53;98622.09;;;-0.62;78.49
51081;BME280;37130;55.670;37.596;2023-12-28T01:17:21;98619.50;;;-0.62;78.23
51081;BME280;37130;55.670;37.596;2023-12-28T01:19:48;98626.41;;;-0.63;78.29
51081;BME280;37130;55.670;37.596;2023-12-28T01:22:16;98632.50;;;-0.62;78.35
51081;BME280;37130;55.670;37.596;2023-12-28T01:24:46;98634.19;;;-0.61;78.41
51081;BME280;37130;55.670;37.596;2023-12-28T01:27:14;98591.38;;;-0.90;78.62
51081;BME280;37130;55.670;37.596;2023-12-28T01:29:42;98646.25;;;-0.57;78.01
51081;BME280;37130;55.670;37.596;2023-12-28T01:32:10;98641.16;;;-0.63;78.21
51081;BME280;37130;55.670;37.596;2023-12-28T01:34:39;98649.78;;;-0.61;77.98
51081;BME280;37130;55.670;37.596;2023-12-28T01:37:08;98634.31;;;-0.69;78.44
51081;BME280;37130;55.670;37.596;2023-12-28T01:39:35;98647.13;;;-0.58;77.78
51081;BME280;37130;55.670;37.596;2023-12-28T01:42:03;98644.56;;;-0.60;78.08
51081;BME280;37130;55.670;37.596;2023-12-28T01:44:32;98552.97;;;-1.22;78.00
51081;BME280;37130;55.670;37.596;2023-12-28T01:47:00;98649.72;;;-0.58;78.08
51081;BME280;37130;55.670;37.596;2023-12-28T01:49:27;98640.22;;;-0.59;78.04
51081;BME280;37130;55.670;37.596;2023-12-28T01:51:57;98639.25;;;-0.55;78.16
51081;BME280;37130;55.670;37.596;2023-12-28T01:54:24;98642.69;;;-0.52;77.95
51081;BME280;37130;55.670;37.596;2023-12-28T01:56:52;98652.25;;;-0.52;77.86
51081;BME280;37130;55.670;37.596;2023-12-28T01:59:20;98598.19;;;-0.83;78.06
51081;BME280;37130;55.670;37.596;2023-12-28T02:01:48;98650.44;;;-0.49;78.48
51081;BME280;37130;55.670;37.596;2023-12-28T02:04:16;98584.44;;;-0.90;78.33
51081;BME280;37130;55.670;37.596;2023-12-28T02:06:44;98657.25;;;-0.43;77.91
51081;BME280;37130;55.670;37.596;2023-12-28T02:09:11;98594.63;;;-0.77;78.05
51081;BME280;37130;55.670;37.596;2023-12-28T02:11:39;98666.59;;;-0.33;77.80
51081;BME280;37130;55.670;37.596;2023-12-28T02:14:07;98683.97;;;-0.33;78.02
51081;BME280;37130;55.670;37.596;2023-12-28T02:16:47;98611.84;;;-0.72;77.79
51081;BME280;37130;55.670;37.596;2023-12-28T02:22:13;98675.38;;;-0.38;78.07
51081;BME280;37130;55.670;37.596;2023-12-28T02:27:26;98680.53;;;-0.37;77.85
51081;BME280;37130;55.670;37.596;2023-12-28T02:29:55;98676.22;;;-0.36;77.97
51081;BME280;37130;55.670;37.596;2023-12-28T02:32:32;98682.22;;;-0.33;77.93
51081;BME280;37130;55.670;37.596;2023-12-28T02:35:08;98676.94;;;-0.30;77.88
51081;BME280;37130;55.670;37.596;2023-12-28T02:37:37;98683.84;;;-0.27;77.80
51081;BME280;37130;55.670;37.596;2023-12-28T02:40:06;98687.28;;;-0.27;77.73
51081;BME280;37130;55.670;37.596;2023-12-28T02:42:35;98685.66;;;-0.31;77.78
51081;BME280;37130;55.670;37.596;2023-12-28T02:45:03;98692.63;;;-0.34;77.96
51081;BME280;37130;55.670;37.596;2023-12-28T02:47:31;98679.75;;;-0.42;78.25
51081;BME280;37130;55.670;37.596;2023-12-28T02:49:59;98685.72;;;-0.35;78.21
51081;BME280;37130;55.670;37.596;2023-12-28T02:52:27;98654.09;;;-0.60;78.00
51081;BME280;37130;55.670;37.596;2023-12-28T02:54:55;98688.47;;;-0.43;78.32
51081;BME280;37130;55.670;37.596;2023-12-28T02:57:22;98683.38;;;-0.49;78.59
51081;BME280;37130;55.670;37.596;2023-12-28T02:59:50;98638.00;;;-0.81;78.21
51081;BME280;37130;55.670;37.596;2023-12-28T03:02:18;98693.88;;;-0.55;78.48
51081;BME280;37130;55.670;37.596;2023-12-28T03:04:46;98692.22;;;-0.59;78.77
51081;BME280;37130;55.670;37.596;2023-12-28T03:07:14;98669.94;;;-0.74;78.52
51081;BME280;37130;55.670;37.596;2023-12-28T03:09:42;98645.09;;;-0.89;78.75
51081;BME280;37130;55.670;37.596;2023-12-28T03:12:09;98684.44;;;-0.59;79.16
51081;BME280;37130;55.670;37.596;2023-12-28T03:14:37;98608.25;;;-1.14;78.36
51081;BME280;37130;55.670;37.596;2023-12-28T03:17:05;98670.78;;;-0.71;78.62
51081;BME280;37130;55.670;37.596;2023-12-28T03:19:33;98697.50;;;-0.62;78.65
51081;BME280;37130;55.670;37.596;2023-12-28T03:22:00;98656.34;;;-0.90;78.61
51081;BME280;37130;55.670;37.596;2023-12-28T03:24:28;98708.63;;;-0.56;78.61
51081;BME280;37130;55.670;37.596;2023-12-28T03:26:56;98710.50;;;-0.62;78.59
51081;BME280;37130;55.670;37.596;2023-12-28T03:29:24;98712.19;;;-0.61;78.37
51081;BME280;37130;55.670;37.596;2023-12-28T03:31:52;98684.63;;;-0.72;78.68
51081;BME280;37130;55.670;37.596;2023-12-28T03:34:22;98703.53;;;-0.62;78.63
51081;BME280;37130;55.670;37.596;2023-12-28T03:36:50;98711.31;;;-0.60;78.77
51081;BME280;37130;55.670;37.596;2023-12-28T03:39:18;98727.75;;;-0.58;78.52
51081;BME280;37130;55.670;37.596;2023-12-28T03:41:47;98731.19;;;-0.58;78.67
51081;BME280;37130;55.670;37.596;2023-12-28T03:44:14;98730.31;;;-0.57;78.41
51081;BME280;37130;55.670;37.596;2023-12-28T03:46:42;98735.53;;;-0.58;78.25
51081;BME280;37130;55.670;37.596;2023-12-28T03:49:10;98728.69;;;-0.62;78.38
51081;BME280;37130;55.670;37.596;2023-12-28T03:51:38;98709.84;;;-0.75;78.73
51081;BME280;37130;55.670;37.596;2023-12-28T03:54:06;98733.06;;;-0.64;78.64
51081;BME280;37130;55.670;37.596;2023-12-28T03:56:34;98703.81;;;-0.79;78.55
51081;BME280;37130;55.670;37.596;2023-12-28T03:59:03;98733.97;;;-0.69;78.63
51081;BME280;37130;55.670;37.596;2023-12-28T04:01:33;98731.44;;;-0.72;78.61
51081;BME280;37130;55.670;37.596;2023-12-28T04:04:01;98731.47;;;-0.73;79.07
51081;BME280;37130;55.670;37.596;2023-12-28T04:06:29;98719.41;;;-0.79;78.73
51081;BME280;37130;55.670;37.596;2023-12-28T04:08:58;98729.81;;;-0.79;78.56
51081;BME280;37130;55.670;37.596;2023-12-28T04:11:25;98734.16;;;-0.79;78.72
51081;BME280;37130;55.670;37.596;2023-12-28T04:13:53;98697.25;;;-1.01;78.45
51081;BME280;37130;55.670;37.596;2023-12-28T04:16:20;98742.00;;;-0.81;78.74
51081;BME280;37130;55.670;37.596;2023-12-28T04:18:48;98651.06;;;-1.40;78.89
51081;BME280;37130;55.670;37.596;2023-12-28T04:21:16;98745.59;;;-0.91;79.15
51081;BME280;37130;55.670;37.596;2023-12-28T04:23:44;98736.13;;;-0.94;78.86
51081;BME280;37130;55.670;37.596;2023-12-28T04:26:11;98748.00;;;-0.79;78.82
51081;BME280;37130;55.670;37.596;2023-12-28T04:28:39;98757.47;;;-0.75;78.63
51081;BME280;37130;55.670;37.596;2023-12-28T04:31:07;98757.47;;;-0.75;78.85
51081;BME280;37130;55.670;37.596;2023-12-28T04:33:35;98766.06;;;-0.70;78.61
51081;BME280;37130;55.670;37.596;2023-12-28T04:36:03;98768.66;;;-0.68;78.59
51081;BME280;37130;55.670;37.596;2023-12-28T04:38:33;98771.25;;;-0.70;78.60
51081;BME280;37130;55.670;37.596;2023-12-28T04:41:00;98767.75;;;-0.67;78.63
51081;BME280;37130;55.670;37.596;2023-12-28T04:43:28;98766.91;;;-0.68;78.73
51081;BME280;37130;55.670;37.596;2023-12-28T04:45:56;98768.66;;;-0.70;78.65
51081;BME280;37130;55.670;37.596;2023-12-28T04:48:25;98775.44;;;-0.61;78.51
51081;BME280;37130;55.670;37.596;2023-12-28T04:50:53;98768.47;;;-0.57;78.41
51081;BME280;37130;55.670;37.596;2023-12-28T04:53:21;98734.22;;;-0.84;78.07
51081;BME280;37130;55.670;37.596;2023-12-28T04:55:48;98772.78;;;-0.56;78.54
51081;BME280;37130;55.670;37.596;2023-12-28T04:58:16;98780.53;;;-0.53;78.32
51081;BME280;37130;55.670;37.596;2023-12-28T05:00:46;98765.81;;;-0.54;78.49
51081;BME280;37130;55.670;37.596;2023-12-28T05:03:13;98776.06;;;-0.45;78.78
51081;BME280;37130;55.670;37.596;2023-12-28T05:05:42;98776.84;;;-0.40;78.39
51081;BME280;37130;55.670;37.596;2023-12-28T05:08:09;98771.44;;;-0.29;78.51
51081;BME280;37130;55.670;37.596;2023-12-28T05:10:37;98787.03;;;-0.26;78.28
51081;BME280;37130;55.670;37.596;2023-12-28T05:13:04;98788.75;;;-0.27;78.31
51081;BME280;37130;55.670;37.596;2023-12-28T05:15:32;98785.16;;;-0.18;78.28
51081;BME280;37130;55.670;37.596;2023-12-28T05:17:59;98785.88;;;-0.10;78.13
51081;BME280;37130;55.670;37.596;2023-12-28T05:20:28;98784.84;;;0.01;78.02
51081;BME280;37130;55.670;37.596;2023-12-28T05:22:55;98789.13;;;0.02;77.69
51081;BME280;37130;55.670;37.596;2023-12-28T05:25:23;98783.09;;;0.01;77.94
51081;BME280;37130;55.670;37.596;2023-12-28T05:27:50;98752.53;;;-0.37;78.10
51081;BME280;37130;55.670;37.596;2023-12-28T05:30:18;98809.50;;;-0.22;78.06
51081;BME280;37130;55.670;37.596;2023-12-28T05:32:46;98808.59;;;-0.19;78.32
51081;BME280;37130;55.670;37.596;2023-12-28T05:35:14;98804.16;;;-0.13;77.95
51081;BME280;37130;55.670;37.596;2023-12-28T05:37:41;98771.75;;;-0.48;78.11
51081;BME280;37130;55.670;37.596;2023-12-28T05:40:09;98810.41;;;-0.25;78.30
51081;BME280;37130;55.670;37.596;2023-12-28T05:42:37;98760.69;;;-0.60;78.17
51081;BME280;37130;55.670;37.596;2023-12-28T05:45:05;98820.81;;;-0.25;78.41
51081;BME280;37130;55.670;37.596;2023-12-28T05:47:32;98773.47;;;-0.45;78.42
51081;BME280;37130;55.670;37.596;2023-12-28T05:50:00;98796.41;;;-0.17;77.72
51081;BME280;37130;55.670;37.596;2023-12-28T05:52:30;98822.25;;;-0.05;77.64
51081;BME280;37130;55.670;37.596;2023-12-28T05:54:58;98820.56;;;-0.09;77.79
51081;BME280;37130;55.670;37.596;2023-12-28T05:57:25;98830.19;;;-0.16;77.81
51081;BME280;37130;55.670;37.596;2023-12-28T05:59:57;98831.13;;;-0.18;78.11
51081;BME280;37130;55.670;37.596;2023-12-28T06:02:24;98831.88;;;-0.10;78.23
51081;BME280;37130;55.670;37.596;2023-12-28T06:04:52;98836.06;;;-0.03;77.79
51081;BME280;37130;55.670;37.596;2023-12-28T06:07:20;98804.38;;;-0.27;78.31
51081;BME280;37130;55.670;37.596;2023-12-28T06:09:47;98851.41;;;0.12;78.34
51081;BME280;37130;55.670;37.596;2023-12-28T06:12:16;98847.72;;;0.26;78.28
51081;BME280;37130;55.670;37.596;2023-12-28T06:14:43;98835.78;;;0.14;77.56
51081;BME280;37130;55.670;37.596;2023-12-28T06:17:11;98861.75;;;0.17;78.12
51081;BME280;37130;55.670;37.596;2023-12-28T06:19:39;98866.13;;;0.15;77.55
51081;BME280;37130;55.670;37.596;2023-12-28T06:22:06;98795.00;;;-0.37;77.62
51081;BME280;37130;55.670;37.596;2023-12-28T06:24:37;98877.38;;;0.18;77.70
51081;BME280;37130;55.670;37.596;2023-12-28T06:27:05;98825.69;;;-0.05;77.46
51081;BME280;37130;55.670;37.596;2023-12-28T06:29:33;98885.06;;;0.23;77.40
51081;BME280;37130;55.670;37.596;2023-12-28T06:32:01;98882.50;;;0.21;77.58
51081;BME280;37130;55.670;37.596;2023-12-28T06:34:29;98792.31;;;-0.31;77.06
51081;BME280;37130;55.670;37.596;2023-12-28T06:36:57;98848.34;;;-0.10;77.08
51081;BME280;37130;55.670;37.596;2023-12-28T06:39:24;98907.59;;;0.26;77.22
51081;BME280;37130;55.670;37.596;2023-12-28T06:41:52;98912.88;;;0.22;77.19
51081;BME280;37130;55.670;37.596;2023-12-28T06:44:20;98916.31;;;0.23;77.23
51081;BME280;37130;55.670;37.596;2023-12-28T06:46:47;98913.81;;;0.17;76.86
51081;BME280;37130;55.670;37.596;2023-12-28T06:49:15;98926.06;;;0.13;77.05
51081;BME280;37130;55.670;37.596;2023-12-28T06:51:43;98924.22;;;0.18;77.05
51081;BME280;37130;55.670;37.596;2023-12-28T06:54:13;98924.22;;;0.18;76.70
51081;BME280;37130;55.670;37.596;2023-12-28T06:56:42;98921.66;;;0.15;76.69
51081;BME280;37130;55.670;37.596;2023-12-28T06:59:10;98906.03;;;0.15;76.77
51081;BME280;37130;55.670;37.596;2023-12-28T07:01:42;98925.75;;;0.29;76.66
51081;BME280;37130;55.670;37.596;2023-12-28T07:04:11;98849.91;;;-0.01;76.37
51081;BME280;37130;55.670;37.596;2023-12-28T07:06:39;98923.91;;;0.37;76.34
51081;BME280;37130;55.670;37.596;2023-12-28T07:09:07;98927.13;;;0.50;76.38
51081;BME280;37130;55.670;37.596;2023-12-28T07:11:35;98935.66;;;0.59;75.70
51081;BME280;37130;55.670;37.596;2023-12-28T07:14:03;98929.47;;;0.65;75.74
51081;BME280;37130;55.670;37.596;2023-12-28T07:16:30;98942.44;;;0.68;76.03
51081;BME280;37130;55.670;37.596;2023-12-28T07:18:58;98951.09;;;0.72;75.35
51081;BME280;37130;55.670;37.596;2023-12-28T07:21:26;98953.75;;;0.67;75.62
51081;BME280;37130;55.670;37.596;2023-12-28T07:23:54;98956.41;;;0.65;75.60
51081;BME280;37130;55.670;37.596;2023-12-28T07:26:22;98952.91;;;0.67;75.54
51081;BME280;37130;55.670;37.596;2023-12-28T07:28:50;98960.81;;;0.62;75.65
51081;BME280;37130;55.670;37.596;2023-12-28T07:31:24;98960.09;;;0.54;75.26
51081;BME280;37130;55.670;37.596;2023-12-28T07:33:53;98858.94;;;-0.22;75.35
51081;BME280;37130;55.670;37.596;2023-12-28T07:36:21;98968.09;;;0.41;75.62
51081;BME280;37130;55.670;37.596;2023-12-28T07:38:49;98967.16;;;0.46;75.62
51081;BME280;37130;55.670;37.596;2023-12-28T07:41:17;98968.72;;;0.56;75.36
51081;BME280;37130;55.670;37.596;2023-12-28T07:43:44;98965.28;;;0.54;75.27
51081;BME280;37130;55.670;37.596;2023-12-28T07:46:12;98964.44;;;0.53;75.28
51081;BME280;37130;55.670;37.596;2023-12-28T07:48:40;98907.63;;;0.24;75.37
51081;BME280;37130;55.670;37.596;2023-12-28T07:51:08;98969.47;;;0.62;75.03
51081;BME280;37130;55.670;37.596;2023-12-28T07:53:36;98923.03;;;0.36;74.92
51081;BME280;37130;55.670;37.596;2023-12-28T07:56:04;98979.69;;;0.73;74.41
51081;BME280;37130;55.670;37.596;2023-12-28T07:58:34;98970.19;;;0.72;74.74
51081;BME280;37130;55.670;37.596;2023-12-28T08:01:09;98991.00;;;0.74;74.73
51081;BME280;37130;55.670;37.596;2023-12-28T08:03:37;98999.69;;;0.74;74.25
51081;BME280;37130;55.670;37.596;2023-12-28T08:06:05;98997.94;;;0.75;74.94
51081;BME280;37130;55.670;37.596;2023-12-28T08:08:33;98996.91;;;0.83;74.29
51081;BME280;37130;55.670;37.596;2023-12-28T08:11:01;99003.66;;;0.94;74.12
51081;BME280;37130;55.670;37.596;2023-12-28T08:13:29;98997.44;;;1.02;73.71
51081;BME280;37130;55.670;37.596;2023-12-28T08:15:56;98912.59;;;0.38;73.53
51081;BME280;37130;55.670;37.596;2023-12-28T08:18:24;98927.00;;;0.57;73.72
51081;BME280;37130;55.670;37.596;2023-12-28T08:20:52;98990.47;;;1.03;73.34
51081;BME280;37130;55.670;37.596;2023-12-28T08:23:20;98958.91;;;0.70;73.25
51081;BME280;37130;55.670;37.596;2023-12-28T08:25:48;98973.41;;;0.86;73.24
51081;BME280;37130;55.670;37.596;2023-12-28T08:28:15;99010.31;;;1.10;72.45
51081;BME280;37130;55.670;37.596;2023-12-28T08:30:44;98999.94;;;1.07;72.92
51081;BME280;37130;55.670;37.596;2023-12-28T08:33:12;99003.25;;;1.15;72.97
51081;BME280;37130;55.670;37.596;2023-12-28T08:35:40;99016.19;;;1.21;72.60
51081;BME280;37130;55.670;37.596;2023-12-28T08:38:07;98961.03;;;0.98;72.32
51081;BME280;37130;55.670;37.596;2023-12-28T08:40:36;99018.41;;;1.41;72.36
51081;BME280;37130;55.670;37.596;2023-12-28T08:43:03;99020.84;;;1.50;72.08
51081;BME280;37130;55.670;37.596;2023-12-28T08:45:31;99013.09;;;1.46;71.80
51081;BME280;37130;55.670;37.596;2023-12-28T08:47:59;98958.22;;;1.07;71.72
51081;BME280;37130;55.670;37.596;2023-12-28T08:50:28;98958.44;;;0.96;71.60
51081;BME280;37130;55.670;37.596;2023-12-28T08:52:56;99017.03;;;1.23;71.78
51081;BME280;37130;55.670;37.596;2023-12-28T08:55:23;99023.16;;;1.21;72.33
51081;BME280;37130;55.670;37.596;2023-12-28T08:57:51;99026.78;;;1.14;71.87
51081;BME280;37130;55.670;37.596;2023-12-28T09:00:19;98973.69;;;0.71;72.12
51081;BME280;37130;55.670;37.596;2023-12-28T09:02:47;99033.03;;;1.05;71.98
51081;BME280;37130;55.670;37.596;2023-12-28T09:05:14;99042.69;;;1.00;72.53
51081;BME280;37130;55.670;37.596;2023-12-28T09:07:42;99038.41;;;0.96;72.80
51081;BME280;37130;55.670;37.596;2023-12-28T09:10:11;99011.59;;;0.87;72.86
51081;BME280;37130;55.670;37.596;2023-12-28T09:12:40;99032.00;;;1.14;72.09
51081;BME280;37130;55.670;37.596;2023-12-28T09:15:08;99035.38;;;1.19;72.24
51081;BME280;37130;55.670;37.596;2023-12-28T09:17:36;99040.50;;;1.23;72.17
51081;BME280;37130;55.670;37.596;2023-12-28T09:20:05;99044.03;;;1.21;72.83
51081;BME280;37130;55.670;37.596;2023-12-28T09:22:34;99034.50;;;1.18;73.19
51081;BME280;37130;55.670;37.596;2023-12-28T09:25:02;99039.59;;;1.24;72.55
51081;BME280;37130;55.670;37.596;2023-12-28T09:27:30;99054.47;;;1.19;73.27
51081;BME280;37130;55.670;37.596;2023-12-28T09:29:58;99046.06;;;1.05;73.21
51081;BME280;37130;55.670;37.596;2023-12-28T09:32:26;99055.84;;;0.92;74.01
51081;BME280;37130;55.670;37.596;2023-12-28T09:34:54;99059.25;;;0.94;74.07
51081;BME280;37130;55.670;37.596;2023-12-28T09:37:21;99021.44;;;0.70;74.10
51081;BME280;37130;55.670;37.596;2023-12-28T09:39:49;98967.22;;;0.42;73.94
51081;BME280;37130;55.670;37.596;2023-12-28T09:42:24;98993.09;;;0.53;74.24
51081;BME280;37130;55.670;37.596;2023-12-28T09:44:54;99055.13;;;0.82;74.20
51081;BME280;37130;55.670;37.596;2023-12-28T09:47:22;99049.13;;;0.79;74.17
51081;BME280;37130;55.670;37.596;2023-12-28T09:49:49;99051.00;;;0.69;74.18
51081;BME280;37130;55.670;37.596;2023-12-28T09:52:18;99063.88;;;0.80;73.58
51081;BME280;37130;55.670;37.596;2023-12-28T09:54:46;99068.09;;;0.87;73.42
51081;BME280;37130;55.670;37.596;2023-12-28T09:57:13;99042.69;;;0.98;73.30
51081;BME280;37130;55.670;37.596;2023-12-28T09:59:41;99010.56;;;0.98;72.92
51081;BME280;37130;55.670;37.596;2023-12-28T10:02:10;99048.94;;;1.36;72.58
51081;BME280;37130;55.670;37.596;2023-12-28T10:04:38;99069.28;;;1.64;72.13
51081;BME280;37130;55.670;37.596;2023-12-28T10:07:06;99067.44;;;1.69;71.54
51081;BME280;37130;55.670;37.596;2023-12-28T10:09:34;99010.91;;;1.24;71.16
51081;BME280;37130;55.670;37.596;2023-12-28T10:12:02;99043.97;;;1.22;71.26
51081;BME280;37130;55.670;37.596;2023-12-28T10:14:30;99053.06;;;1.48;71.68
51081;BME280;37130;55.670;37.596;2023-12-28T10:16:58;99061.59;;;1.58;71.43
51081;BME280;37130;55.670;37.596;2023-12-28T10:19:26;99027.13;;;1.40;70.60
51081;BME280;37130;55.670;37.596;2023-12-28T10:21:54;98991.31;;;1.05;69.83
51081;BME280;37130;55.670;37.596;2023-12-28T10:24:22;99020.56;;;1.19;69.96
51081;BME280;37130;55.670;37.596;2023-12-28T10:26:49;99031.75;;;1.26;69.70
51081;BME280;37130;55.670;37.596;2023-12-28T10:29:17;99050.72;;;1.34;69.42
51081;BME280;37130;55.670;37.596;2023-12-28T10:31:46;99056.03;;;1.28;69.31
51081;BME280;37130;55.670;37.596;2023-12-28T10:34:18;99058.56;;;1.33;69.24
51081;BME280;37130;55.670;37.596;2023-12-28T10:36:47;99024.03;;;1.21;69.29
51081;BME280;37130;55.670;37.596;2023-12-28T10:39:19;99047.97;;;1.42;69.22
51081;BME280;37130;55.670;37.596;2023-12-28T10:41:49;99014.31;;;1.28;68.43
51081;BME280;37130;55.670;37.596;2023-12-28T10:44:19;99054.91;;;1.41;69.03
51081;BME280;37130;55.670;37.596;2023-12-28T10:46:55;99077.44;;;1.47;68.24
51081;BME280;37130;55.670;37.596;2023-12-28T10:49:25;99050.81;;;1.29;68.31
51081;BME280;37130;55.670;37.596;2023-12-28T10:51:54;98996.81;;;0.88;68.44
51081;BME280;37130;55.670;37.596;2023-12-28T10:54:52;99061.53;;;1.13;68.65
51081;BME280;37130;55.670;37.596;2023-12-28T10:57:28;99041.00;;;0.96;69.02
51081;BME280;37130;55.670;37.596;2023-12-28T11:00:13;99059.94;;;1.05;68.92
51081;BME280;37130;55.670;37.596;2023-12-28T11:02:45;99064.47;;;0.94;69.08
51081;BME280;37130;55.670;37.596;2023-12-28T11:05:13;98987.16;;;0.43;69.21
51081;BME280;37130;55.670;37.596;2023-12-28T11:07:43;99056.84;;;0.83;69.10
51081;BME280;37130;55.670;37.596;2023-12-28T11:10:10;99072.59;;;0.79;69.35
51081;BME280;37130;55.670;37.596;2023-12-28T11:12:41;99070.72;;;0.87;69.45
51081;BME280;37130;55.670;37.596;2023-12-28T11:15:10;99067.88;;;0.99;69.63
51081;BME280;37130;55.670;37.596;2023-12-28T11:17:39;99068.81;;;0.95;69.07
51081;BME280;37130;55.670;37.596;2023-12-28T11:20:08;99075.84;;;0.90;69.39
51081;BME280;37130;55.670;37.596;2023-12-28T11:22:38;99073.31;;;0.87;69.66
51081;BME280;37130;55.670;37.596;2023-12-28T11:25:06;99054.47;;;0.71;69.55
51081;BME280;37130;55.670;37.596;2023-12-28T11:27:37;99079.50;;;0.78;69.85
51081;BME280;37130;55.670;37.596;2023-12-28T11:30:05;99075.22;;;0.76;69.67
51081;BME280;37130;55.670;37.596;2023-12-28T11:32:35;99060.72;;;0.59;69.69
51081;BME280;37130;55.670;37.596;2023-12-28T11:35:06;99068.41;;;0.69;69.91
51081;BME280;37130;55.670;37.596;2023-12-28T11:37:38;99065.84;;;0.65;69.81
51081;BME280;37130;55.670;37.596;2023-12-28T11:40:18;98978.41;;;-0.05;69.81
51081;BME280;37130;55.670;37.596;2023-12-28T11:42:53;99074.78;;;0.49;69.97
51081;BME280;37130;55.670;37.596;2023-12-28T11:45:22;99081.75;;;0.47;70.00
51081;BME280;37130;55.670;37.596;2023-12-28T11:48:01;99019.78;;;0.10;70.21
51081;BME280;37130;55.670;37.596;2023-12-28T11:50:29;99080.97;;;0.42;69.79
51081;BME280;37130;55.670;37.596;2023-12-28T11:52:57;99025.31;;;-0.11;69.78
51081;BME280;37130;55.670;37.596;2023-12-28T11:55:25;99082.16;;;0.19;69.72
51081;BME280;37130;55.670;37.596;2023-12-28T11:57:52;98993.66;;;-0.42;69.98
51081;BME280;37130;55.670;37.596;2023-12-28T12:00:20;99073.66;;;0.08;70.06
51081;BME280;37130;55.670;37.596;2023-12-28T12:02:49;99077.00;;;0.16;70.12
51081;BME280;37130;55.670;37.596;2023-12-28T12:05:17;99096.19;;;0.09;69.94
51081;BME280;37130;55.670;37.596;2023-12-28T12:07:44;99103.22;;;0.03;70.16
51081;BME280;37130;55.670;37.596;2023-12-28T12:10:15;99064.63;;;-0.34;70.15
51081;BME280;37130;55.670;37.596;2023-12-28T12:12:45;99110.44;;;-0.18;70.45
51081;BME280;37130;55.670;37.596;2023-12-28T12:15:12;99121.78;;;-0.24;69.99
51081;BME280;37130;55.670;37.596;2023-12-28T12:17:40;99119.25;;;-0.33;70.32
51081;BME280;37130;55.670;37.596;2023-12-28T12:20:08;99115.00;;;-0.38;69.88
51081;BME280;37130;55.670;37.596;2023-12-28T12:22:36;99050.44;;;-0.80;69.97
51081;BME280;37130;55.670;37.596;2023-12-28T12:25:06;99073.84;;;-0.80;69.78
51081;BME280;37130;55.670;37.596;2023-12-28T12:27:36;99091.22;;;-0.85;69.81
51081;BME280;37130;55.670;37.596;2023-12-28T12:30:06;99120.44;;;-0.61;69.80
51081;BME280;37130;55.670;37.596;2023-12-28T12:32:35;99071.41;;;-1.00;70.09
51081;BME280;37130;55.670;37.596;2023-12-28T12:35:11;99049.00;;;-1.08;69.80
51081;BME280;37130;55.670;37.596;2023-12-28T12:37:39;99112.78;;;-0.77;69.94
51081;BME280;37130;55.670;37.596;2023-12-28T12:40:07;99124.00;;;-0.72;69.54
51081;BME280;37130;55.670;37.596;2023-12-28T12:42:38;99113.69;;;-0.79;70.22
51081;BME280;37130;55.670;37.596;2023-12-28T12:45:06;99082.66;;;-0.98;69.72
51081;BME280;37130;55.670;37.596;2023-12-28T12:47:34;99140.53;;;-0.79;68.82
51081;BME280;37130;55.670;37.596;2023-12-28T12:50:02;99140.56;;;-0.82;68.96
51081;BME280;37130;55.670;37.596;2023-12-28T12:52:30;99146.78;;;-0.97;69.09
51081;BME280;37130;55.670;37.596;2023-12-28T12:54:58;99165.81;;;-0.92;69.72
51081;BME280;37130;55.670;37.596;2023-12-28T12:57:26;99162.31;;;-0.91;69.37
51081;BME280;37130;55.670;37.596;2023-12-28T12:59:56;99167.59;;;-1.01;68.82
51081;BME280;37130;55.670;37.596;2023-12-28T13:02:24;99159.91;;;-1.12;68.84
51081;BME280;37130;55.670;37.596;2023-12-28T13:04:52;99158.22;;;-1.18;68.61
51081;BME280;37130;55.670;37.596;2023-12-28T13:07:22;99159.13;;;-1.25;69.14